Time;durP1;ratioP1;P1;durP2;ratioP2;P2;SDS_P1;SDS_P2;PMS_P1;PMS_P2;Temp;Humidity;BMP_temperature;BMP_pressure;BME280_temperature;BME280_humidity;BME280_pressure;Samples;Min_cycle;Max_cycle;Signal;HPM_P1;HPM_P2
2022/12/24 00:01:03;;;;;;;3.67;1.13;;;;;;;14.17;59.46;96937.53;5066085;28;20183;-72
2022/12/24 00:03:28;;;;;;;4.93;1.57;;;;;;;14.24;59.60;96956.88;5071676;28;20255;-73
2022/12/24 00:05:54;;;;;;;4.83;1.40;;;;;;;14.26;59.42;96957.50;5070508;28;20416;-73
2022/12/24 00:08:19;;;;;;;3.33;1.50;;;;;;;14.17;59.60;96948.06;5071622;28;20217;-72
2022/12/24 00:10:49;;;;;;;4.00;1.53;;;;;;;14.22;59.36;96954.44;5066605;28;20170;-71
2022/12/24 00:13:14;;;;;;;2.83;1.50;;;;;;;14.18;59.62;96953.16;5062711;28;20278;-72
2022/12/24 00:15:39;;;;;;;4.33;1.40;;;;;;;13.98;60.23;96958.13;5066684;28;20869;-73
2022/12/24 00:18:05;;;;;;;4.83;1.53;;;;;;;13.92;60.39;96964.13;5063133;28;20229;-74
2022/12/24 00:20:30;;;;;;;7.90;2.10;;;;;;;14.10;60.15;96969.06;5071415;28;20182;-73
2022/12/24 00:22:56;;;;;;;5.43;1.50;;;;;;;13.96;60.47;96973.28;5070882;28;20198;-71
2022/12/24 00:25:21;;;;;;;3.43;1.33;;;;;;;14.08;60.33;96973.69;5071714;28;20175;-72
2022/12/24 00:27:47;;;;;;;5.90;1.10;;;;;;;14.04;60.44;96973.22;5070886;28;20202;-72
2022/12/24 00:30:12;;;;;;;3.90;1.23;;;;;;;13.95;60.44;96979.56;5070636;28;20209;-72
2022/12/24 00:32:37;;;;;;;9.43;1.37;;;;;;;14.05;60.50;96974.84;5065911;28;20570;-72
2022/12/24 00:35:03;;;;;;;8.07;1.70;;;;;;;14.08;60.50;96968.41;5071984;28;20218;-71
2022/12/24 00:37:28;;;;;;;4.47;1.23;;;;;;;14.06;60.61;96954.59;5068064;28;20189;-74
2022/12/24 00:39:54;;;;;;;3.87;1.13;;;;;;;14.02;61.05;96966.47;5073127;28;20899;-74
2022/12/24 00:42:19;;;;;;;7.60;1.70;;;;;;;13.96;60.79;96976.75;5076278;28;20197;-72
2022/12/24 00:44:45;;;;;;;12.63;1.30;;;;;;;13.98;60.76;96987.09;5075810;28;20189;-73
2022/12/24 00:47:10;;;;;;;6.27;1.20;;;;;;;13.96;60.79;96992.56;5064341;28;20293;-73
2022/12/24 00:49:36;;;;;;;8.07;1.33;;;;;;;13.98;60.18;96976.56;5074559;28;20175;-72
2022/12/24 00:52:02;;;;;;;4.87;1.73;;;;;;;14.02;60.07;96969.94;5075731;28;20928;-72
2022/12/24 00:54:27;;;;;;;11.40;1.77;;;;;;;13.86;60.11;96980.63;5066368;28;20248;-71
2022/12/24 00:56:53;;;;;;;4.30;1.27;;;;;;;13.93;60.05;96974.47;5070334;28;20167;-73
2022/12/24 00:59:18;;;;;;;5.57;1.93;;;;;;;13.90;59.97;96980.09;5075342;28;20249;-72
2022/12/24 01:01:43;;;;;;;2.23;1.10;;;;;;;13.88;59.91;96989.19;5069072;28;20273;-73
2022/12/24 01:06:53;;;;;;;7.63;1.80;;;;;;;13.93;59.59;96998.19;5074746;28;20209;-72
2022/12/24 01:09:18;;;;;;;3.87;1.53;;;;;;;13.92;59.38;96999.19;5076863;28;20853;-71
2022/12/24 01:11:45;;;;;;;7.80;2.03;;;;;;;13.88;59.29;97013.69;5069577;28;20331;-73
2022/12/24 01:14:10;;;;;;;3.70;1.47;;;;;;;13.93;59.01;97007.88;5066923;28;20175;-72
2022/12/24 01:16:36;;;;;;;9.77;1.60;;;;;;;13.97;58.96;97015.28;5073860;28;20428;-72
2022/12/24 01:19:01;;;;;;;6.53;1.63;;;;;;;13.93;59.21;97019.25;5097895;28;20542;-72
2022/12/24 01:21:26;;;;;;;4.20;1.50;;;;;;;13.89;59.08;97027.69;5080066;28;20267;-73
2022/12/24 01:23:52;;;;;;;4.90;1.60;;;;;;;13.97;59.08;97028.44;5077861;28;20209;-73
2022/12/24 01:26:17;;;;;;;5.00;1.33;;;;;;;13.88;58.96;97032.13;5042205;28;20265;-72
2022/12/24 01:28:43;;;;;;;7.70;1.67;;;;;;;13.94;58.94;97041.97;5059594;28;20198;-72
2022/12/24 01:31:13;;;;;;;7.10;1.40;;;;;;;13.94;59.04;97041.97;5070939;28;20176;-73
2022/12/24 01:33:39;;;;;;;5.93;1.50;;;;;;;14.01;59.23;97041.25;5069970;28;20213;-72
2022/12/24 01:36:05;;;;;;;7.33;1.60;;;;;;;14.02;59.10;97048.16;5075536;28;20508;-73
2022/12/24 01:38:30;;;;;;;8.17;1.77;;;;;;;13.98;58.70;97034.53;5075955;28;20178;-74
2022/12/24 01:43:39;;;;;;;10.70;1.90;;;;;;;13.98;58.80;97031.88;5068457;28;20197;-73
2022/12/24 01:46:26;;;;;;;5.53;1.57;;;;;;;14.01;58.76;97052.63;5080354;28;20452;-70
2022/12/24 01:48:53;;;;;;;7.20;1.70;;;;;;;14.07;58.56;97066.91;5062170;28;20179;-71
2022/12/24 01:51:38;;;;;;;6.97;1.90;;;;;;;14.09;58.62;97104.44;5073720;28;20420;-72
2022/12/24 01:54:13;;;;;;;5.37;1.90;;;;;;;14.12;58.88;97117.22;5073979;28;20482;-72
2022/12/24 01:56:43;;;;;;;7.23;1.90;;;;;;;14.09;59.23;97117.63;5073872;28;20426;-73
2022/12/24 01:59:11;;;;;;;5.03;1.50;;;;;;;14.10;59.81;97129.78;5073534;28;21071;-72
2022/12/24 02:01:37;;;;;;;5.57;1.97;;;;;;;14.11;60.15;97123.53;5083495;28;20982;-73
2022/12/24 02:04:08;;;;;;;5.87;1.87;;;;;;;14.12;60.55;97104.91;5064406;28;20479;-74
2022/12/24 02:06:33;;;;;;;3.97;2.00;;;;;;;14.11;60.87;97121.69;5038227;28;20417;-72
2022/12/24 02:08:59;;;;;;;5.83;1.60;;;;;;;14.12;61.07;97144.41;5069729;28;20514;-72
2022/12/24 02:11:24;;;;;;;6.37;1.40;;;;;;;14.04;61.37;97147.13;5084806;28;20213;-72
2022/12/24 02:13:52;;;;;;;10.60;1.70;;;;;;;14.03;61.65;97147.28;5067498;28;20261;-71
2022/12/24 02:16:30;;;;;;;5.40;1.80;;;;;;;13.96;61.88;97129.56;5072680;28;20179;-73
2022/12/24 02:19:17;;;;;;;6.00;1.80;;;;;;;13.92;62.25;97122.19;5074988;28;20493;-73
2022/12/24 02:21:50;;;;;;;8.63;1.80;;;;;;;13.94;62.61;97136.81;5075327;28;20405;-74
2022/12/24 02:24:26;;;;;;;4.60;1.83;;;;;;;13.93;62.77;97136.97;5065568;28;20417;-72
2022/12/24 02:27:16;;;;;;;8.97;3.70;;;;;;;13.94;63.08;97136.81;5072075;28;20528;-72
2022/12/24 02:30:14;;;;;;;7.73;2.97;;;;;;;13.89;63.04;97144.41;5066936;28;20492;-71
2022/12/24 02:33:02;;;;;;;4.50;1.90;;;;;;;13.93;63.38;97150.16;5068165;28;20476;-72
2022/12/24 02:35:59;;;;;;;11.10;2.40;;;;;;;13.87;63.58;97138.50;5072801;28;20409;-72
2022/12/24 02:38:29;;;;;;;9.03;2.40;;;;;;;13.86;63.60;97144.75;5042491;28;20976;-72
2022/12/24 02:41:02;;;;;;;8.03;2.33;;;;;;;13.85;63.96;97143.13;5071004;28;20436;-74
2022/12/24 02:43:32;;;;;;;7.10;2.30;;;;;;;13.82;63.98;97148.75;5071732;28;21123;-71
2022/12/24 02:46:01;;;;;;;8.23;1.80;;;;;;;13.84;64.00;97157.31;5071275;28;20431;-73
2022/12/24 02:48:28;;;;;;;9.73;1.93;;;;;;;13.68;63.40;97152.94;5071630;28;20464;-71
2022/12/24 02:51:01;;;;;;;8.70;2.23;;;;;;;13.67;62.63;97154.75;5066551;28;20416;-71
2022/12/24 02:53:27;;;;;;;4.33;1.57;;;;;;;13.69;62.30;97159.84;5068317;28;20554;-73
2022/12/24 02:56:05;;;;;;;5.77;1.97;;;;;;;13.64;61.79;97172.72;5066800;28;20452;-73
2022/12/24 02:58:41;;;;;;;10.23;1.97;;;;;;;13.74;61.70;97161.94;5088513;28;20216;-73
2022/12/24 03:01:17;;;;;;;8.77;1.80;;;;;;;13.73;61.35;97155.06;5064426;28;20425;-72
2022/12/24 03:03:54;;;;;;;9.03;2.10;;;;;;;13.77;60.96;97164.25;5072318;28;20990;-71
2022/12/24 03:06:30;;;;;;;6.13;1.87;;;;;;;13.74;60.36;97175.94;5054813;28;20421;-72
2022/12/24 03:09:05;;;;;;;5.27;1.40;;;;;;;13.72;60.20;97177.13;5071914;28;20822;-73
2022/12/24 03:11:30;;;;;;;6.40;2.13;;;;;;;13.77;59.77;97174.78;5064731;28;20427;-72
2022/12/24 03:13:57;;;;;;;9.00;1.97;;;;;;;13.80;59.21;97187.59;5063190;28;20500;-72
2022/12/24 03:16:25;;;;;;;5.20;1.67;;;;;;;13.86;59.28;97176.38;5071243;28;20183;-71
2022/12/24 03:18:52;;;;;;;11.10;2.50;;;;;;;13.90;58.97;97188.19;5071763;28;20768;-72
2022/12/24 03:21:33;;;;;;;7.37;1.70;;;;;;;13.90;58.97;97182.94;5073757;28;20457;-71
2022/12/24 03:23:59;;;;;;;9.17;2.03;;;;;;;13.94;59.36;97193.94;5072419;28;20459;-73
2022/12/24 03:26:25;;;;;;;9.23;2.40;;;;;;;13.88;58.79;97206.00;5070718;28;20424;-72
2022/12/24 03:28:51;;;;;;;13.87;2.20;;;;;;;13.95;59.25;97195.59;5072119;28;20261;-72
2022/12/24 03:31:17;;;;;;;5.70;1.53;;;;;;;13.90;59.95;97201.38;5081633;28;20438;-72
2022/12/24 03:33:43;;;;;;;5.20;1.83;;;;;;;13.91;59.90;97195.13;5088915;28;20202;-72
2022/12/24 03:36:09;;;;;;;11.33;2.23;;;;;;;13.87;59.04;97196.44;5072510;28;20421;-73
2022/12/24 03:38:34;;;;;;;11.43;2.40;;;;;;;13.90;59.02;97203.19;5072505;28;20263;-72
2022/12/24 03:41:01;;;;;;;11.07;2.50;;;;;;;13.89;59.09;97207.63;5067793;28;20181;-72
2022/12/24 03:43:26;;;;;;;5.33;1.80;;;;;;;13.78;59.08;97213.28;5073202;28;20203;-73
2022/12/24 03:45:52;;;;;;;9.87;2.27;;;;;;;13.77;59.36;97224.81;5072418;28;20421;-72
2022/12/24 03:48:17;;;;;;;10.73;2.07;;;;;;;13.76;59.20;97215.28;5069728;28;20217;-72
2022/12/24 03:50:42;;;;;;;7.17;1.80;;;;;;;13.78;59.30;97216.75;5071309;28;20174;-71
2022/12/24 03:53:08;;;;;;;9.03;2.37;;;;;;;13.81;59.11;97221.66;5071993;28;20281;-72
2022/12/24 03:55:33;;;;;;;10.30;2.17;;;;;;;13.82;59.11;97212.78;5070887;28;20166;-73
2022/12/24 03:57:59;;;;;;;7.73;1.97;;;;;;;13.79;58.89;97210.50;5070095;28;20190;-73
2022/12/24 04:00:24;;;;;;;10.90;2.43;;;;;;;13.77;59.27;97215.13;5070282;28;20187;-73
2022/12/24 04:02:50;;;;;;;8.00;2.10;;;;;;;13.76;59.31;97218.75;5066623;28;20201;-71
2022/12/24 04:05:17;;;;;;;6.27;2.13;;;;;;;13.69;59.66;97214.34;5070121;28;20174;-73
2022/12/24 04:07:43;;;;;;;8.63;2.30;;;;;;;13.69;59.87;97201.97;5086423;28;20221;-72
2022/12/24 04:10:09;;;;;;;7.83;2.07;;;;;;;13.72;59.44;97206.09;5065538;28;20862;-72
2022/12/24 04:12:35;;;;;;;5.47;1.40;;;;;;;13.75;59.62;97206.56;5084054;28;20206;-72
2022/12/24 04:15:00;;;;;;;12.87;2.00;;;;;;;13.77;59.20;97225.66;5063728;28;20421;-72
2022/12/24 04:17:26;;;;;;;8.60;2.03;;;;;;;13.77;59.84;97214.28;5050943;28;20575;-72
2022/12/24 04:19:51;;;;;;;9.53;1.50;;;;;;;13.71;59.51;97205.25;5042854;28;20761;-74
2022/12/24 04:22:17;;;;;;;8.63;1.60;;;;;;;13.76;59.38;97215.28;5068185;28;20190;-73
2022/12/24 04:24:43;;;;;;;4.03;1.90;;;;;;;13.72;60.09;97224.53;5071485;28;20261;-73
2022/12/24 04:27:08;;;;;;;11.47;2.03;;;;;;;13.72;59.35;97221.91;5070627;28;20202;-71
2022/12/24 04:29:33;;;;;;;11.13;1.93;;;;;;;13.67;59.87;97223.22;5045044;28;20214;-71
2022/12/24 04:31:59;;;;;;;7.37;2.20;;;;;;;13.69;60.22;97211.69;5052684;28;20278;-73
2022/12/24 04:34:25;;;;;;;8.37;1.70;;;;;;;13.65;60.45;97206.78;5019253;28;20175;-73
2022/12/24 04:36:51;;;;;;;4.63;1.50;;;;;;;13.62;60.60;97207.09;5052021;28;20178;-73
2022/12/24 04:39:16;;;;;;;5.53;1.63;;;;;;;13.64;60.45;97222.75;5052750;28;20432;-73
2022/12/24 04:41:42;;;;;;;3.40;1.93;;;;;;;13.58;60.57;97213.72;5060356;28;20266;-72
2022/12/24 04:44:08;;;;;;;7.10;1.80;;;;;;;13.64;60.61;97214.84;5071069;28;20263;-71
2022/12/24 04:46:34;;;;;;;6.30;2.10;;;;;;;13.61;60.32;97225.72;5058061;28;20206;-74
2022/12/24 04:49:00;;;;;;;5.40;1.63;;;;;;;13.58;60.02;97232.16;5052039;28;20941;-73
2022/12/24 04:51:26;;;;;;;6.83;1.90;;;;;;;13.60;60.00;97224.91;5055574;28;20436;-73
2022/12/24 04:53:51;;;;;;;9.27;1.63;;;;;;;13.55;59.95;97229.84;5064767;28;20225;-71
2022/12/24 04:56:22;;;;;;;5.07;1.80;;;;;;;13.57;59.40;97222.63;5069299;28;20476;-73
2022/12/24 04:58:48;;;;;;;7.40;1.70;;;;;;;13.58;59.72;97237.44;5059746;28;20736;-73
2022/12/24 05:01:17;;;;;;;5.43;2.00;;;;;;;13.50;59.57;97240.06;5069070;28;20421;-73
2022/12/24 05:03:42;;;;;;;7.73;1.87;;;;;;;13.36;59.62;97237.13;5064995;28;20194;-73
2022/12/24 05:06:11;;;;;;;7.63;1.77;;;;;;;13.36;59.77;97247.66;5069190;28;20775;-71
2022/12/24 05:08:37;;;;;;;10.00;1.93;;;;;;;13.45;59.52;97243.22;5071537;28;20198;-72
2022/12/24 05:11:03;;;;;;;8.20;2.17;;;;;;;13.47;59.25;97248.31;5056050;28;20429;-72
2022/12/24 05:13:29;;;;;;;11.83;1.80;;;;;;;13.42;59.10;97237.47;5043687;28;20440;-72
2022/12/24 05:15:55;;;;;;;4.57;1.67;;;;;;;13.44;58.98;97236.31;5070054;28;20263;-72
2022/12/24 05:18:20;;;;;;;9.43;1.90;;;;;;;13.36;58.82;97246.84;5050332;28;20450;-73
2022/12/24 05:20:46;;;;;;;8.20;1.43;;;;;;;13.35;59.15;97253.94;5060933;28;20209;-73
2022/12/24 05:26:22;;;;;;;8.10;1.83;;;;;;;13.21;59.11;97244.09;5073526;28;20783;-73
2022/12/24 05:28:49;;;;;;;14.00;3.20;;;;;;;13.09;59.38;97246.25;5071204;28;20444;-73
2022/12/24 05:31:15;;;;;;;9.50;2.07;;;;;;;13.19;58.95;97246.06;5090413;28;20451;-73
2022/12/24 05:33:40;;;;;;;5.73;1.80;;;;;;;13.10;58.85;97249.72;5073433;28;20445;-72
2022/12/24 05:36:06;;;;;;;8.60;2.07;;;;;;;13.25;58.94;97242.75;5065594;28;20643;-71
2022/12/24 05:38:32;;;;;;;14.70;2.87;;;;;;;13.16;58.78;97236.69;5070641;28;20178;-72
2022/12/24 05:40:57;;;;;;;11.80;2.10;;;;;;;13.22;58.72;97237.84;5071421;28;20179;-72
2022/12/24 05:43:23;;;;;;;9.33;2.47;;;;;;;13.20;58.71;97245.88;5072616;28;20285;-72
2022/12/24 05:45:48;;;;;;;13.37;2.27;;;;;;;13.26;58.88;97249.66;5068770;28;20186;-73
2022/12/24 05:48:13;;;;;;;6.60;2.10;;;;;;;13.23;58.49;97244.75;5072325;28;20202;-73
2022/12/24 05:50:39;;;;;;;8.83;2.03;;;;;;;13.18;58.75;97249.69;5064138;28;20286;-72
2022/12/24 05:53:05;;;;;;;6.20;1.83;;;;;;;13.10;58.60;97261.03;5039541;28;20571;-73
2022/12/24 05:55:31;;;;;;;6.73;1.73;;;;;;;13.14;58.55;97251.00;5067185;28;20182;-71
2022/12/24 05:57:56;;;;;;;5.50;2.10;;;;;;;13.06;58.81;97255.28;5073797;28;20417;-72
2022/12/24 06:00:22;;;;;;;7.00;1.77;;;;;;;12.99;58.54;97258.75;5073859;28;20246;-73
2022/12/24 06:02:47;;;;;;;5.50;1.77;;;;;;;13.02;58.35;97255.78;5066285;28;20273;-72
2022/12/24 06:05:13;;;;;;;7.63;2.07;;;;;;;12.98;58.85;97242.13;5074046;28;20257;-73
2022/12/24 06:07:38;;;;;;;13.70;2.03;;;;;;;13.13;58.53;97244.94;5073742;28;20198;-71
2022/12/24 06:10:05;;;;;;;6.60;2.07;;;;;;;13.11;58.60;97252.16;5067809;28;20179;-72
2022/12/24 06:12:30;;;;;;;6.43;1.90;;;;;;;13.08;58.03;97267.47;5063208;28;20248;-73
2022/12/24 06:14:56;;;;;;;18.67;2.10;;;;;;;13.15;58.18;97263.16;5069211;28;20413;-73
2022/12/24 06:17:21;;;;;;;8.50;2.60;;;;;;;13.17;57.96;97263.81;5073775;28;20653;-73
2022/12/24 06:19:46;;;;;;;12.00;1.70;;;;;;;13.20;57.89;97258.22;5055347;28;20191;-73
2022/12/24 06:22:12;;;;;;;8.50;2.60;;;;;;;13.20;57.81;97252.97;5068842;28;20265;-72
2022/12/24 06:24:37;;;;;;;10.23;1.80;;;;;;;13.25;57.76;97261.16;5039024;28;20216;-72
2022/12/24 06:27:03;;;;;;;12.47;2.17;;;;;;;13.29;57.80;97270.38;5073914;28;20195;-73
2022/12/24 06:29:28;;;;;;;11.23;2.67;;;;;;;13.29;57.62;97270.38;5061454;28;20274;-72
2022/12/24 06:31:54;;;;;;;11.63;2.40;;;;;;;13.28;57.97;97276.63;5067814;28;20615;-71
2022/12/24 06:34:19;;;;;;;12.90;2.27;;;;;;;13.19;58.16;97270.56;5072046;28;20210;-73
2022/12/24 06:36:44;;;;;;;9.50;2.40;;;;;;;13.16;58.70;97284.06;5070833;28;20183;-72
2022/12/24 06:39:10;;;;;;;9.20;2.40;;;;;;;13.10;58.93;97289.19;5073941;28;20189;-71
2022/12/24 06:41:35;;;;;;;9.27;1.97;;;;;;;13.11;58.83;97303.94;5062737;28;20261;-73
2022/12/24 06:44:01;;;;;;;12.27;2.60;;;;;;;13.14;58.81;97304.47;5072487;28;20254;-71
2022/12/24 06:46:26;;;;;;;8.47;2.30;;;;;;;13.08;58.69;97305.09;5087292;28;20179;-73
2022/12/24 06:48:53;;;;;;;6.57;1.87;;;;;;;13.07;58.88;97313.97;5072048;28;20636;-72
2022/12/24 06:51:19;;;;;;;8.90;2.10;;;;;;;13.03;59.13;97318.75;5072282;28;20186;-73
2022/12/24 06:53:45;;;;;;;12.67;2.37;;;;;;;13.03;59.69;97334.53;5071725;28;20898;-72
2022/12/24 06:56:12;;;;;;;13.37;3.00;;;;;;;13.05;59.56;97332.56;5071115;28;20425;-71
2022/12/24 06:58:39;;;;;;;10.50;2.40;;;;;;;13.09;59.76;97337.50;5066674;28;20178;-72
2022/12/24 07:01:05;;;;;;;12.00;2.37;;;;;;;13.07;59.23;97340.28;5068290;28;20417;-72
2022/12/24 07:03:31;;;;;;;11.67;2.13;;;;;;;13.10;59.52;97326.00;5043094;28;20444;-71
2022/12/24 07:05:57;;;;;;;10.37;2.27;;;;;;;13.11;60.07;97340.78;5066752;28;20417;-73
2022/12/24 07:08:22;;;;;;;10.23;4.33;;;;;;;13.07;60.22;97332.41;5071625;28;20297;-74
2022/12/24 07:10:50;;;;;;;16.77;7.70;;;;;;;13.06;60.37;97328.13;5065535;28;20433;-73
2022/12/24 07:13:16;;;;;;;16.70;5.37;;;;;;;13.01;60.77;97333.88;5062189;28;20221;-73
2022/12/24 07:15:41;;;;;;;13.67;3.83;;;;;;;13.01;60.96;97335.72;5086574;28;20412;-71
2022/12/24 07:18:07;;;;;;;15.00;3.30;;;;;;;12.99;61.02;97349.00;5069954;28;20265;-72
2022/12/24 07:20:32;;;;;;;10.70;3.00;;;;;;;13.02;60.96;97346.06;5062881;28;20178;-73
2022/12/24 07:22:58;;;;;;;7.30;2.50;;;;;;;13.04;60.99;97353.81;5070038;28;20190;-71
2022/12/24 07:25:23;;;;;;;12.63;3.00;;;;;;;13.06;60.70;97359.69;5069651;28;20232;-73
2022/12/24 07:27:49;;;;;;;16.83;3.83;;;;;;;13.05;60.89;97364.16;5070762;28;20752;-72
2022/12/24 07:30:14;;;;;;;8.60;3.10;;;;;;;13.03;60.50;97370.56;5061733;28;20198;-71
2022/12/24 07:32:40;;;;;;;12.20;3.37;;;;;;;13.03;60.37;97367.94;5071076;28;20210;-72
2022/12/24 07:35:06;;;;;;;19.73;8.43;;;;;;;13.02;59.83;97377.63;5070639;28;20181;-71
2022/12/24 07:37:31;;;;;;;17.20;7.23;;;;;;;13.10;59.58;97376.00;5064901;28;20534;-72
2022/12/24 07:39:57;;;;;;;14.53;6.00;;;;;;;13.08;59.63;97377.97;5070407;28;20191;-73
2022/12/24 07:42:22;;;;;;;9.00;4.10;;;;;;;13.14;59.61;97377.28;5064870;28;20225;-72
2022/12/24 07:44:47;;;;;;;11.03;3.30;;;;;;;13.17;58.99;97374.34;5071201;28;20641;-72
2022/12/24 07:47:13;;;;;;;11.10;3.67;;;;;;;13.18;59.38;97374.16;5070648;28;20233;-73
2022/12/24 07:49:38;;;;;;;9.70;3.00;;;;;;;13.19;59.22;97375.00;5071298;28;20242;-72
2022/12/24 07:52:04;;;;;;;11.70;3.13;;;;;;;13.22;59.02;97377.31;5071919;28;20263;-73
2022/12/24 07:54:29;;;;;;;10.83;2.60;;;;;;;13.18;59.04;97378.63;5063423;28;20194;-73
2022/12/24 07:56:55;;;;;;;11.97;3.17;;;;;;;13.13;58.72;97383.53;5085914;28;20171;-72
2022/12/24 07:59:20;;;;;;;9.67;2.70;;;;;;;13.15;58.96;97378.94;5061553;28;20207;-72
2022/12/24 08:01:46;;;;;;;13.27;2.77;;;;;;;13.06;59.30;97393.91;5070894;28;20178;-72
2022/12/24 08:04:11;;;;;;;11.73;2.53;;;;;;;13.12;59.02;97392.41;5069554;28;20182;-71
2022/12/24 08:06:37;;;;;;;11.43;3.00;;;;;;;13.16;59.07;97397.22;5085895;28;20210;-72
2022/12/24 08:09:03;;;;;;;14.47;3.07;;;;;;;13.13;59.17;97394.06;5062659;28;20182;-74
2022/12/24 08:11:28;;;;;;;16.53;3.53;;;;;;;13.15;59.25;97387.69;5064542;28;20175;-71
2022/12/24 08:13:53;;;;;;;6.90;2.40;;;;;;;13.15;59.43;97385.03;5060686;28;20271;-72
2022/12/24 08:16:19;;;;;;;8.87;2.60;;;;;;;13.12;59.46;97401.16;5070523;28;20551;-72
2022/12/24 08:18:44;;;;;;;9.07;2.20;;;;;;;13.12;59.50;97395.06;5068786;28;20185;-72
2022/12/24 08:21:10;;;;;;;10.40;2.43;;;;;;;13.14;59.38;97393.94;5070648;28;20669;-72
2022/12/24 08:23:36;;;;;;;8.40;2.30;;;;;;;13.14;59.45;97388.66;5069473;28;20194;-73
2022/12/24 08:26:01;;;;;;;9.67;2.60;;;;;;;13.08;59.58;97393.75;5070815;28;20212;-73
2022/12/24 08:28:27;;;;;;;4.83;2.20;;;;;;;13.11;59.86;97406.56;5060767;28;20293;-73
2022/12/24 08:30:52;;;;;;;9.53;2.73;;;;;;;13.13;59.86;97405.44;5064669;28;20641;-74
2022/12/24 08:33:18;;;;;;;6.30;2.33;;;;;;;13.16;60.09;97406.91;5071406;28;20210;-71
2022/12/24 08:35:47;;;;;;;6.33;2.17;;;;;;;13.20;59.80;97410.88;5070901;28;20182;-72
2022/12/24 08:38:13;;;;;;;8.50;2.50;;;;;;;13.27;59.16;97421.56;5086702;28;20178;-71
2022/12/24 08:40:38;;;;;;;10.63;2.50;;;;;;;13.27;59.00;97422.38;5071527;28;20431;-72
2022/12/24 08:43:04;;;;;;;10.53;2.30;;;;;;;13.27;59.24;97425.00;5059965;28;20226;-72
2022/12/24 08:45:29;;;;;;;9.50;2.53;;;;;;;13.31;59.65;97425.50;5070590;28;20353;-71
2022/12/24 08:47:55;;;;;;;7.20;2.23;;;;;;;13.24;59.45;97430.59;5064658;28;20290;-73
2022/12/24 08:50:20;;;;;;;7.13;2.43;;;;;;;13.26;59.31;97433.88;5070258;28;20209;-72
2022/12/24 08:52:45;;;;;;;15.67;2.73;;;;;;;13.17;59.67;97432.25;5070576;28;20289;-71
2022/12/24 08:55:11;;;;;;;13.37;2.63;;;;;;;13.11;59.57;97436.34;5071244;28;20664;-71
2022/12/24 08:57:36;;;;;;;13.90;3.10;;;;;;;13.14;59.29;97446.56;5072641;28;20262;-72
2022/12/24 09:00:04;;;;;;;10.10;2.57;;;;;;;13.14;59.36;97450.97;5067135;28;20178;-72
2022/12/24 09:02:29;;;;;;;7.70;2.60;;;;;;;13.15;59.30;97452.63;5077084;28;20202;-72
2022/12/24 09:04:55;;;;;;;6.87;2.20;;;;;;;13.19;59.16;97448.69;5077167;28;20594;-73
2022/12/24 09:07:20;;;;;;;9.40;2.70;;;;;;;13.16;59.15;97449.84;5075494;28;20289;-74
2022/12/24 09:09:46;;;;;;;18.63;3.00;;;;;;;13.16;59.21;97454.28;5064638;28;20182;-71
2022/12/24 09:12:11;;;;;;;10.53;2.50;;;;;;;13.11;59.51;97453.94;5064744;28;20194;-72
2022/12/24 09:14:36;;;;;;;11.80;2.20;;;;;;;13.26;59.29;97459.41;5066952;28;20269;-70
2022/12/24 09:17:02;;;;;;;6.80;2.23;;;;;;;13.40;59.08;97457.94;5076460;28;20171;-72
2022/12/24 09:19:27;;;;;;;8.73;2.30;;;;;;;13.47;58.14;97466.84;5076609;28;20547;-73
2022/12/24 09:21:53;;;;;;;8.83;2.40;;;;;;;13.73;58.03;97468.47;5076142;28;20253;-73
2022/12/24 09:24:18;;;;;;;12.17;2.97;;;;;;;14.03;57.51;97472.22;5067535;28;20190;-72
2022/12/24 09:26:47;;;;;;;9.17;2.03;;;;;;;14.46;56.51;97485.13;5075420;28;20189;-73
2022/12/24 09:29:14;;;;;;;9.60;2.57;;;;;;;14.78;55.77;97483.38;5065571;28;20206;-72
2022/12/24 09:31:39;;;;;;;14.90;3.00;;;;;;;14.83;55.24;97482.84;5075357;28;20428;-71
2022/12/24 09:34:05;;;;;;;13.87;2.90;;;;;;;14.82;54.68;97489.94;5075821;28;20429;-73
2022/12/24 09:36:30;;;;;;;13.33;2.77;;;;;;;14.78;54.47;97488.66;5075193;28;20209;-72
2022/12/24 09:38:56;;;;;;;7.70;2.20;;;;;;;14.61;54.81;97489.69;5072626;28;20205;-71
2022/12/24 09:41:38;;;;;;;11.77;2.10;;;;;;;14.52;54.72;97473.88;5070052;28;20183;-73
2022/12/24 09:44:23;;;;;;;13.93;2.63;;;;;;;14.48;55.11;97477.03;5072115;28;20179;-71
2022/12/24 09:46:50;;;;;;;10.20;2.20;;;;;;;14.37;54.79;97486.97;5088426;28;20417;-73
2022/12/24 09:49:25;;;;;;;11.53;3.60;;;;;;;14.46;54.96;97482.50;5072506;28;20425;-70
2022/12/24 09:51:50;;;;;;;14.47;2.43;;;;;;;14.36;54.76;97487.16;5072454;28;20412;-72
2022/12/24 09:54:29;;;;;;;9.87;2.70;;;;;;;14.25;54.85;97481.22;5087622;28;20427;-71
2022/12/24 09:56:59;;;;;;;8.40;2.27;;;;;;;14.73;54.47;97477.81;5064545;28;20236;-73
2022/12/24 09:59:43;;;;;;;9.30;2.57;;;;;;;15.33;53.77;97481.56;5063056;28;20827;-72
2022/12/24 10:02:11;;;;;;;7.43;2.70;;;;;;;15.72;51.88;97471.03;5071590;28;20452;-74
2022/12/24 10:04:36;;;;;;;19.20;2.80;;;;;;;16.08;51.05;97479.16;5072294;28;20515;-73
2022/12/24 10:07:30;;;;;;;8.70;2.60;;;;;;;16.69;50.59;97483.44;5064867;28;20456;-73
2022/12/24 10:10:02;;;;;;;17.53;2.97;;;;;;;16.89;48.42;97478.38;5068689;28;20240;-72
2022/12/24 10:12:40;;;;;;;10.77;2.43;;;;;;;16.95;48.81;97468.09;5062831;28;20444;-75
2022/12/24 10:15:24;;;;;;;9.50;3.00;;;;;;;16.97;48.08;97466.91;5071917;28;20470;-73
2022/12/24 10:18:08;;;;;;;8.07;2.60;;;;;;;16.83;48.02;97476.47;5067189;28;20457;-73
2022/12/24 10:20:43;;;;;;;12.60;3.33;;;;;;;16.83;48.42;97470.34;5065136;28;20420;-72
2022/12/24 10:23:28;;;;;;;7.60;2.57;;;;;;;16.88;47.92;97471.44;5072405;28;20435;-73
2022/12/24 10:26:18;;;;;;;11.27;3.10;;;;;;;16.88;48.41;97481.22;5071643;28;20416;-72
2022/12/24 10:28:52;;;;;;;11.20;3.47;;;;;;;17.00;48.42;97485.06;5066346;28;20964;-73
2022/12/24 10:31:33;;;;;;;9.00;3.30;;;;;;;17.00;48.74;97492.16;5053623;28;20424;-73
2022/12/24 10:34:02;;;;;;;16.23;3.33;;;;;;;16.90;48.51;97495.06;5074375;28;20437;-72
2022/12/24 10:36:29;;;;;;;10.17;2.90;;;;;;;16.82;48.53;97487.25;5073351;28;20507;-72
2022/12/24 10:38:55;;;;;;;9.83;3.20;;;;;;;16.80;48.92;97489.25;5088518;28;20417;-73
2022/12/24 10:41:23;;;;;;;9.60;2.70;;;;;;;16.61;49.03;97496.78;5066120;28;20413;-73
2022/12/24 10:43:49;;;;;;;12.53;2.83;;;;;;;16.59;48.56;97501.41;5048166;28;20457;-73
2022/12/24 10:46:18;;;;;;;14.40;2.97;;;;;;;16.45;48.66;97496.94;5068812;28;20785;-74
2022/12/24 10:49:01;;;;;;;11.53;2.90;;;;;;;16.44;48.65;97493.50;5072432;28;20317;-74
2022/12/24 10:51:56;;;;;;;17.60;2.73;;;;;;;16.28;48.82;97491.81;5068686;28;20976;-73
2022/12/24 10:54:27;;;;;;;7.20;2.33;;;;;;;16.32;49.60;97503.69;5069558;28;20582;-73
2022/12/24 10:56:58;;;;;;;8.37;2.53;;;;;;;16.36;49.11;97491.75;5081764;28;20453;-72
2022/12/24 10:59:34;;;;;;;10.33;2.30;;;;;;;16.43;49.29;97495.31;5062144;28;20445;-73
2022/12/24 11:02:00;;;;;;;14.30;2.90;;;;;;;16.43;49.55;97489.22;5071177;28;20424;-73
2022/12/24 11:04:31;;;;;;;15.10;3.17;;;;;;;16.40;49.31;97490.38;5071890;28;21654;-73
2022/12/24 11:07:02;;;;;;;7.77;3.17;;;;;;;16.35;49.54;97479.53;5056914;28;20436;-74
2022/12/24 11:09:34;;;;;;;13.80;2.30;;;;;;;16.27;49.20;97483.09;5070913;28;20420;-73
2022/12/24 11:12:01;;;;;;;12.30;2.67;;;;;;;16.00;49.55;97479.25;5067910;28;20421;-73
2022/12/24 11:14:36;;;;;;;11.80;2.80;;;;;;;15.79;50.07;97488.63;5062525;28;20419;-71
2022/12/24 11:17:03;;;;;;;5.10;1.90;;;;;;;15.90;50.12;97494.50;5086747;28;20903;-73
2022/12/24 11:19:38;;;;;;;8.47;2.03;;;;;;;15.67;50.27;97495.34;5064071;28;20502;-73
2022/12/24 11:22:06;;;;;;;8.70;2.37;;;;;;;15.49;50.48;97493.84;5070066;28;20441;-72
2022/12/24 11:24:33;;;;;;;12.80;2.60;;;;;;;15.46;50.95;97502.13;5070353;28;20421;-72
2022/12/24 11:27:33;;;;;;;7.37;2.70;;;;;;;15.46;51.08;97496.84;5056746;28;20421;-73
2022/12/24 11:30:14;;;;;;;11.33;2.30;;;;;;;15.42;50.77;97497.38;5054605;28;20433;-72
2022/12/24 11:32:40;;;;;;;16.23;2.70;;;;;;;15.31;51.33;97496.75;5071389;28;20815;-73
2022/12/24 11:35:11;;;;;;;14.53;2.90;;;;;;;15.22;51.68;97489.06;5070484;28;20425;-72
2022/12/24 11:37:36;;;;;;;14.23;3.97;;;;;;;15.34;51.87;97491.13;5057644;28;20786;-73
2022/12/24 11:40:02;;;;;;;11.00;2.60;;;;;;;15.39;51.76;97487.94;5066611;28;20425;-73
2022/12/24 11:42:28;;;;;;;17.97;2.93;;;;;;;15.42;51.65;97489.44;5065439;28;20434;-73